Time;durP1;ratioP1;P1;durP2;ratioP2;P2;SDS_P1;SDS_P2;PMS_P1;PMS_P2;Temp;Humidity;BMP_temperature;BMP_pressure;BME280_temperature;BME280_humidity;BME280_pressure;Samples;Min_cycle;Max_cycle;Signal;HPM_P1;HPM_P2
2022/09/22 00:01:55;;;;;;;;;;;;;;;;;;5064930;28;19985;-62
2022/09/22 00:04:21;;;;;;;;;;;;;;;;;;5065290;28;20426;-62
2022/09/22 00:06:46;;;;;;;;;;;;;;;;;;5065198;28;20431;-61
2022/09/22 00:09:11;;;;;;;;;;;;;;;;;;5069479;28;20018;-62
2022/09/22 00:11:36;;;;;;;;;;;;;;;;;;5063883;28;19922;-62
2022/09/22 00:14:02;;;;;;;;;;;;;;;;;;5070269;28;20506;-61
2022/09/22 00:16:27;;;;;;;;;;;;;;;;;;5061660;28;19916;-62
2022/09/22 00:18:52;;;;;;;;;;;;;;;;;;5064961;28;20038;-62
2022/09/22 00:21:17;;;;;;;;;;;;;;;;;;5071422;28;19924;-62
2022/09/22 00:23:42;;;;;;;;;;;;;;;;;;5064667;28;20952;-62
2022/09/22 00:26:09;;;;;;;;;;;;;;;;;;5070977;28;19927;-62
2022/09/22 00:28:34;;;;;;;;;;;;;;;;;;5063829;28;20068;-62
2022/09/22 00:30:59;;;;;;;;;;;;;;;;;;5048286;28;20355;-62
2022/09/22 00:33:24;;;;;;;;;;;;;;;;;;5070430;28;20421;-62
2022/09/22 00:35:50;;;;;;;;;;;;;;;;;;5066725;28;19916;-62
2022/09/22 00:38:15;;;;;;;;;;;;;;;;;;5072528;28;20430;-62
2022/09/22 00:40:40;;;;;;;;;;;;;;;;;;5065840;28;20289;-62
2022/09/22 00:43:05;;;;;;;;;;;;;;;;;;5063480;28;19916;-61
2022/09/22 00:45:30;;;;;;;;;;;;;;;;;;5052639;28;19920;-64
2022/09/22 00:47:55;;;;;;;;;;;;;;;;;;5064229;28;19923;-61
2022/09/22 00:50:21;;;;;;;;;;;;;;;;;;5070747;28;20035;-61
2022/09/22 00:52:46;;;;;;;;;;;;;;;;;;5063271;28;19916;-61
2022/09/22 00:55:11;;;;;;;;;;;;;;;;;;5063689;28;19921;-62
2022/09/22 00:57:36;;;;;;;;;;;;;;;;;;5069659;28;19930;-61
2022/09/22 01:00:02;;;;;;;;;;;;;;;;;;5063009;28;20263;-62
2022/09/22 01:02:27;;;;;;;;;;;;;;;;;;5075252;28;20252;-63
2022/09/22 01:04:52;;;;;;;;;;;;;;;;;;5060552;28;19916;-61
2022/09/22 01:07:17;;;;;;;;;;;;;;;;;;5071051;28;19920;-61
2022/09/22 01:09:42;;;;;;;;;;;;;;;;;;5069229;28;19936;-61
2022/09/22 01:12:08;;;;;;;;;;;;;;;;;;5065083;28;19958;-61
2022/09/22 01:14:33;;;;;;;;;;;;;;;;;;5068869;28;19967;-61
2022/09/22 01:16:58;;;;;;;;;;;;;;;;;;5057404;28;19916;-61
2022/09/22 01:19:24;;;;;;;;;;;;;;;;;;5063201;28;20336;-62
2022/09/22 01:21:50;;;;;;;;;;;;;;;;;;5070313;28;19957;-62
2022/09/22 01:24:18;;;;;;;;;;;;;;;;;;5065029;28;19924;-61
2022/09/22 01:26:43;;;;;;;;;;;;;;;;;;5056427;28;19916;-62
2022/09/22 01:29:09;;;;;;;;;;;;;;;;;;5067682;28;19924;-61
2022/09/22 01:31:34;;;;;;;;;;;;;;;;;;5063051;28;20292;-62
2022/09/22 01:33:59;;;;;;;;;;;;;;;;;;5070748;28;19996;-61
2022/09/22 01:36:24;;;;;;;;;;;;;;;;;;5065406;28;19939;-61
2022/09/22 01:38:50;;;;;;;;;;;;;;;;;;5075091;28;20273;-62
2022/09/22 01:41:15;;;;;;;;;;;;;;;;;;5066800;28;19916;-61
2022/09/22 01:43:40;;;;;;;;;;;;;;;;;;5068648;28;19920;-61
2022/09/22 01:46:05;;;;;;;;;;;;;;;;;;5073651;28;19916;-61
2022/09/22 01:48:30;;;;;;;;;;;;;;;;;;5068063;28;20417;-61
2022/09/22 01:50:56;;;;;;;;;;;;;;;;;;5068053;28;19939;-62
2022/09/22 01:53:21;;;;;;;;;;;;;;;;;;5067749;28;20286;-64
2022/09/22 01:55:46;;;;;;;;;;;;;;;;;;5066293;28;19924;-61
2022/09/22 01:58:11;;;;;;;;;;;;;;;;;;5074329;28;19920;-61
2022/09/22 02:00:36;;;;;;;;;;;;;;;;;;5063843;28;20441;-61
2022/09/22 02:03:03;;;;;;;;;;;;;;;;;;5070665;28;19920;-62
2022/09/22 02:05:28;;;;;;;;;;;;;;;;;;5069017;28;20428;-61
2022/09/22 02:07:53;;;;;;;;;;;;;;;;;;5064038;28;19931;-62
2022/09/22 02:10:18;;;;;;;;;;;;;;;;;;5072038;28;19983;-62
2022/09/22 02:12:43;;;;;;;;;;;;;;;;;;5061868;28;19924;-61
2022/09/22 02:15:58;;;;;;;;;;;;;;;;;;5070277;28;19916;-61
2022/09/22 02:17:54;;;;;;;;;;;;;;;;;;5071863;28;20212;-62
2022/09/22 02:20:19;;;;;;;;;;;;;;;;;;5066704;28;19923;-61
2022/09/22 02:22:45;;;;;;;;;;;;;;;;;;5072836;28;20494;-61
2022/09/22 02:25:11;;;;;;;;;;;;;;;;;;5072424;28;19912;-61
2022/09/22 02:27:36;;;;;;;;;;;;;;;;;;5069684;28;20415;-61
2022/09/22 02:30:02;;;;;;;;;;;;;;;;;;5075245;28;20015;-61
2022/09/22 02:32:27;;;;;;;;;;;;;;;;;;5066696;28;19924;-61
2022/09/22 02:34:52;;;;;;;;;;;;;;;;;;5074041;28;19916;-61
2022/09/22 02:37:17;;;;;;;;;;;;;;;;;;5066987;28;20154;-61
2022/09/22 02:39:42;;;;;;;;;;;;;;;;;;5066459;28;19920;-61
2022/09/22 02:42:08;;;;;;;;;;;;;;;;;;5073064;28;20339;-61
2022/09/22 02:44:33;;;;;;;;;;;;;;;;;;5065407;28;19962;-61
2022/09/22 02:46:58;;;;;;;;;;;;;;;;;;5074140;28;19916;-61
2022/09/22 02:49:23;;;;;;;;;;;;;;;;;;5066964;28;20322;-61
2022/09/22 02:51:48;;;;;;;;;;;;;;;;;;5067480;28;20148;-61
2022/09/22 02:54:13;;;;;;;;;;;;;;;;;;5071347;28;19959;-60
2022/09/22 02:56:39;;;;;;;;;;;;;;;;;;5067239;28;19942;-61
2022/09/22 02:59:04;;;;;;;;;;;;;;;;;;5073121;28;19916;-61
2022/09/22 03:01:29;;;;;;;;;;;;;;;;;;5066091;28;20591;-61
2022/09/22 03:03:55;;;;;;;;;;;;;;;;;;5066851;28;20456;-61
2022/09/22 03:06:20;;;;;;;;;;;;;;;;;;5071949;28;19927;-61
2022/09/22 03:08:45;;;;;;;;;;;;;;;;;;5065300;28;19977;-61
2022/09/22 03:11:10;;;;;;;;;;;;;;;;;;5073845;28;19917;-61
2022/09/22 03:13:35;;;;;;;;;;;;;;;;;;5064908;28;19943;-61
2022/09/22 03:16:00;;;;;;;;;;;;;;;;;;5064837;28;20503;-62
2022/09/22 03:18:26;;;;;;;;;;;;;;;;;;5070680;28;20402;-62
2022/09/22 03:20:51;;;;;;;;;;;;;;;;;;5064226;28;19916;-62
2022/09/22 03:23:16;;;;;;;;;;;;;;;;;;5051600;28;20082;-61
2022/09/22 03:25:41;;;;;;;;;;;;;;;;;;5063131;28;19927;-61
2022/09/22 03:28:06;;;;;;;;;;;;;;;;;;5068118;28;19923;-61
2022/09/22 03:30:32;;;;;;;;;;;;;;;;;;5069959;28;20407;-62
2022/09/22 03:32:57;;;;;;;;;;;;;;;;;;5064249;28;20380;-62
2022/09/22 03:35:22;;;;;;;;;;;;;;;;;;5053463;28;20039;-62
2022/09/22 03:37:47;;;;;;;;;;;;;;;;;;5069170;28;19916;-62
2022/09/22 03:40:12;;;;;;;;;;;;;;;;;;5065505;28;20327;-62
2022/09/22 03:42:38;;;;;;;;;;;;;;;;;;5069137;28;20034;-62
2022/09/22 03:45:04;;;;;;;;;;;;;;;;;;5065336;28;19912;-61
2022/09/22 03:47:29;;;;;;;;;;;;;;;;;;5070574;28;19916;-61
2022/09/22 03:49:54;;;;;;;;;;;;;;;;;;5065747;28;19935;-61
2022/09/22 03:52:19;;;;;;;;;;;;;;;;;;5064141;28;19916;-62
2022/09/22 03:54:44;;;;;;;;;;;;;;;;;;5069386;28;20396;-60
2022/09/22 03:57:10;;;;;;;;;;;;;;;;;;5063148;28;19959;-61
2022/09/22 03:59:35;;;;;;;;;;;;;;;;;;5069836;28;20394;-61
2022/09/22 04:02:01;;;;;;;;;;;;;;;;;;5061568;28;20309;-61
2022/09/22 04:04:26;;;;;;;;;;;;;;;;;;5065667;28;20721;-61
2022/09/22 04:06:52;;;;;;;;;;;;;;;;;;5070425;28;19925;-60
2022/09/22 04:09:17;;;;;;;;;;;;;;;;;;5066404;28;19931;-60
2022/09/22 04:11:42;;;;;;;;;;;;;;;;;;5070651;28;19920;-61
2022/09/22 04:14:08;;;;;;;;;;;;;;;;;;5064354;28;20215;-61
2022/09/22 04:16:33;;;;;;;;;;;;;;;;;;5065839;28;20059;-61
2022/09/22 04:18:58;;;;;;;;;;;;;;;;;;5071684;28;20331;-62
2022/09/22 04:21:23;;;;;;;;;;;;;;;;;;5065176;28;19952;-62
2022/09/22 04:23:48;;;;;;;;;;;;;;;;;;5071184;28;19916;-61
2022/09/22 04:26:14;;;;;;;;;;;;;;;;;;5064416;28;19922;-61
2022/09/22 04:28:39;;;;;;;;;;;;;;;;;;5063837;28;20439;-61
2022/09/22 04:31:04;;;;;;;;;;;;;;;;;;5069774;28;19917;-61
2022/09/22 04:33:30;;;;;;;;;;;;;;;;;;5062149;28;19916;-61
2022/09/22 04:35:55;;;;;;;;;;;;;;;;;;5069810;28;20359;-61
2022/09/22 04:38:20;;;;;;;;;;;;;;;;;;5065373;28;19920;-60
2022/09/22 04:40:45;;;;;;;;;;;;;;;;;;5061063;28;19936;-61
2022/09/22 04:43:10;;;;;;;;;;;;;;;;;;5071331;28;19916;-62
2022/09/22 04:45:36;;;;;;;;;;;;;;;;;;5063396;28;19924;-61
2022/09/22 04:48:01;;;;;;;;;;;;;;;;;;5070052;28;20328;-61
2022/09/22 04:50:27;;;;;;;;;;;;;;;;;;5062474;28;19931;-62
2022/09/22 04:52:52;;;;;;;;;;;;;;;;;;5062111;28;19916;-61
2022/09/22 04:55:17;;;;;;;;;;;;;;;;;;5069422;28;19931;-60
2022/09/22 04:57:43;;;;;;;;;;;;;;;;;;5065036;28;20441;-62
2022/09/22 05:00:08;;;;;;;;;;;;;;;;;;5068761;28;19935;-61
2022/09/22 05:02:33;;;;;;;;;;;;;;;;;;5061804;28;20053;-61
2022/09/22 05:04:58;;;;;;;;;;;;;;;;;;5060416;28;19943;-62
2022/09/22 05:07:23;;;;;;;;;;;;;;;;;;5066914;28;19935;-62
2022/09/22 05:09:49;;;;;;;;;;;;;;;;;;5061838;28;20061;-62
2022/09/22 05:12:14;;;;;;;;;;;;;;;;;;5065625;28;19920;-61
2022/09/22 05:14:39;;;;;;;;;;;;;;;;;;5061760;28;19916;-61
2022/09/22 05:17:05;;;;;;;;;;;;;;;;;;5065256;28;19924;-61
2022/09/22 05:19:31;;;;;;;;;;;;;;;;;;5072803;28;19917;-63
2022/09/22 05:21:56;;;;;;;;;;;;;;;;;;5067162;28;19920;-61
2022/09/22 05:24:21;;;;;;;;;;;;;;;;;;5074463;28;20048;-60
2022/09/22 05:26:47;;;;;;;;;;;;;;;;;;5067839;28;19977;-60
2022/09/22 05:29:12;;;;;;;;;;;;;;;;;;5067424;28;19944;-61
2022/09/22 05:31:37;;;;;;;;;;;;;;;;;;5076243;28;19916;-61
2022/09/22 05:34:02;;;;;;;;;;;;;;;;;;5066059;28;19982;-62
2022/09/22 05:36:27;;;;;;;;;;;;;;;;;;5072446;28;19917;-61
2022/09/22 05:38:53;;;;;;;;;;;;;;;;;;5068229;28;20613;-61
2022/09/22 05:41:18;;;;;;;;;;;;;;;;;;5071243;28;20326;-61
2022/09/22 05:43:44;;;;;;;;;;;;;;;;;;5079045;28;19920;-61
2022/09/22 05:46:10;;;;;;;;;;;;;;;;;;5072017;28;20433;-60
2022/09/22 05:48:35;;;;;;;;;;;;;;;;;;5082840;28;19920;-61
2022/09/22 05:51:01;;;;;;;;;;;;;;;;;;5065541;28;20370;-62
2022/09/22 05:53:27;;;;;;;;;;;;;;;;;;5070901;28;19921;-61
2022/09/22 05:55:52;;;;;;;;;;;;;;;;;;5074216;28;19999;-61
2022/09/22 05:58:17;;;;;;;;;;;;;;;;;;5068678;28;20272;-62
2022/09/22 06:00:42;;;;;;;;;;;;;;;;;;5071834;28;19974;-61
2022/09/22 06:03:08;;;;;;;;;;;;;;;;;;5068007;28;19917;-61
2022/09/22 06:05:33;;;;;;;;;;;;;;;;;;5065742;28;19916;-61
2022/09/22 06:08:01;;;;;;;;;;;;;;;;;;5074368;28;19923;-61
2022/09/22 06:10:26;;;;;;;;;;;;;;;;;;5063292;28;19924;-61
2022/09/22 06:12:52;;;;;;;;;;;;;;;;;;5071279;28;19916;-62
2022/09/22 06:15:17;;;;;;;;;;;;;;;;;;5072205;28;20015;-60
2022/09/22 06:17:42;;;;;;;;;;;;;;;;;;5058321;28;20442;-61
2022/09/22 06:20:08;;;;;;;;;;;;;;;;;;5072574;28;19916;-61
2022/09/22 06:22:35;;;;;;;;;;;;;;;;;;5074147;28;19962;-60
2022/09/22 06:25:00;;;;;;;;;;;;;;;;;;5074413;28;20377;-61
2022/09/22 06:27:26;;;;;;;;;;;;;;;;;;5072512;28;19923;-61
2022/09/22 06:29:51;;;;;;;;;;;;;;;;;;5074276;28;19940;-61
2022/09/22 06:32:18;;;;;;;;;;;;;;;;;;5073297;28;19916;-61
2022/09/22 06:34:44;;;;;;;;;;;;;;;;;;5073958;28;19966;-62
2022/09/22 06:37:10;;;;;;;;;;;;;;;;;;5072207;28;19922;-61
2022/09/22 06:39:36;;;;;;;;;;;;;;;;;;5073145;28;20552;-61
2022/09/22 06:42:01;;;;;;;;;;;;;;;;;;5077536;28;19966;-62
2022/09/22 06:44:27;;;;;;;;;;;;;;;;;;5071367;28;19916;-62
2022/09/22 06:46:53;;;;;;;;;;;;;;;;;;5072784;28;19963;-61
2022/09/22 06:49:19;;;;;;;;;;;;;;;;;;5071543;28;20523;-62
2022/09/22 06:51:44;;;;;;;;;;;;;;;;;;5071496;28;20292;-61
2022/09/22 06:54:09;;;;;;;;;;;;;;;;;;5070748;28;19912;-60
2022/09/22 06:56:38;;;;;;;;;;;;;;;;;;5072125;28;19916;-61
2022/09/22 06:59:09;;;;;;;;;;;;;;;;;;5071923;28;19920;-62
2022/09/22 07:01:34;;;;;;;;;;;;;;;;;;5070410;28;19912;-62
2022/09/22 07:04:00;;;;;;;;;;;;;;;;;;5071896;28;19923;-62
2022/09/22 07:06:25;;;;;;;;;;;;;;;;;;5072725;28;19920;-61
2022/09/22 07:08:50;;;;;;;;;;;;;;;;;;5071903;28;19927;-62
2022/09/22 07:11:16;;;;;;;;;;;;;;;;;;5069793;28;19922;-62
2022/09/22 07:13:41;;;;;;;;;;;;;;;;;;5071989;28;19956;-61
2022/09/22 07:16:07;;;;;;;;;;;;;;;;;;5070501;28;20618;-60
2022/09/22 07:18:32;;;;;;;;;;;;;;;;;;5072092;28;19923;-61
2022/09/22 07:20:57;;;;;;;;;;;;;;;;;;5070196;28;19923;-61
2022/09/22 07:23:22;;;;;;;;;;;;;;;;;;5072884;28;20476;-61
2022/09/22 07:25:47;;;;;;;;;;;;;;;;;;5070058;28;19920;-62
2022/09/22 07:28:14;;;;;;;;;;;;;;;;;;5071912;28;19920;-60
2022/09/22 07:30:40;;;;;;;;;;;;;;;;;;5071518;28;20022;-61
2022/09/22 07:33:06;;;;;;;;;;;;;;;;;;5071080;28;19930;-61
2022/09/22 07:35:34;;;;;;;;;;;;;;;;;;5071277;28;20016;-62
2022/09/22 07:38:02;;;;;;;;;;;;;;;;;;5071874;28;19916;-61
2022/09/22 07:40:27;;;;;;;;;;;;;;;;;;5068949;28;20277;-62
2022/09/22 07:42:52;;;;;;;;;;;;;;;;;;5069890;28;19927;-61
2022/09/22 07:45:17;;;;;;;;;;;;;;;;;;5070641;28;20408;-62
2022/09/22 07:50:26;;;;;;;;;;;;;;;;;;5071637;28;19924;-62
2022/09/22 07:52:52;;;;;;;;;;;;;;;;;;5070381;28;19974;-61
2022/09/22 07:55:17;;;;;;;;;;;;;;;;;;5070964;28;19917;-62
2022/09/22 07:57:42;;;;;;;;;;;;;;;;;;5069247;28;20386;-62
2022/09/22 08:00:07;;;;;;;;;;;;;;;;;;5067157;28;19928;-62
2022/09/22 08:02:39;;;;;;;;;;;;;;;;;;5069242;28;19916;-62
2022/09/22 08:05:05;;;;;;;;;;;;;;;;;;5069091;28;20035;-62
2022/09/22 08:07:31;;;;;;;;;;;;;;;;;;5071479;28;19927;-63
2022/09/22 08:09:58;;;;;;;;;;;;;;;;;;5068761;28;20386;-62
2022/09/22 08:12:23;;;;;;;;;;;;;;;;;;5069466;28;20414;-63
2022/09/22 08:14:49;;;;;;;;;;;;;;;;;;5070916;28;19923;-63
2022/09/22 08:17:14;;;;;;;;;;;;;;;;;;5069558;28;19922;-62
2022/09/22 08:19:40;;;;;;;;;;;;;;;;;;5068430;28;20010;-62
2022/09/22 08:22:05;;;;;;;;;;;;;;;;;;5071325;28;20563;-62
2022/09/22 08:24:30;;;;;;;;;;;;;;;;;;5068277;28;20457;-63
2022/09/22 08:26:55;;;;;;;;;;;;;;;;;;5070931;28;19923;-63
2022/09/22 08:29:21;;;;;;;;;;;;;;;;;;5067621;28;19932;-63
2022/09/22 08:31:46;;;;;;;;;;;;;;;;;;5070111;28;19932;-62
2022/09/22 08:34:13;;;;;;;;;;;;;;;;;;5071557;28;20019;-63
2022/09/22 08:36:39;;;;;;;;;;;;;;;;;;5071970;28;19916;-63
2022/09/22 08:39:04;;;;;;;;;;;;;;;;;;5071880;28;19958;-62
2022/09/22 08:41:29;;;;;;;;;;;;;;;;;;5072414;28;20498;-61
2022/09/22 08:43:54;;;;;;;;;;;;;;;;;;5070391;28;19916;-61
2022/09/22 08:46:19;;;;;;;;;;;;;;;;;;5070523;28;19948;-62
2022/09/22 08:54:14;;;;;;;;;;;;;;;;;;5074515;28;20379;-62
2022/09/22 08:56:39;;;;;;;;;;;;;;;;;;5074419;28;20622;-62
2022/09/22 08:59:06;;;;;;;;;;;;;;;;;;5073467;28;20054;-62
2022/09/22 09:01:31;;;;;;;;;;;;;;;;;;5074332;28;19927;-63
2022/09/22 09:03:56;;;;;;;;;;;;;;;;;;5072133;28;19920;-62
2022/09/22 09:06:22;;;;;;;;;;;;;;;;;;5074214;28;19949;-62
2022/09/22 09:08:47;;;;;;;;;;;;;;;;;;5075243;28;19912;-62
2022/09/22 09:11:12;;;;;;;;;;;;;;;;;;5071110;28;19995;-63
2022/09/22 09:13:39;;;;;;;;;;;;;;;;;;5074533;28;19916;-62
2022/09/22 09:16:04;;;;;;;;;;;;;;;;;;5073271;28;19920;-62
2022/09/22 09:18:29;;;;;;;;;;;;;;;;;;5073677;28;20016;-62
2022/09/22 09:20:55;;;;;;;;;;;;;;;;;;5073484;28;19916;-63
2022/09/22 09:23:20;;;;;;;;;;;;;;;;;;5073844;28;19916;-63
2022/09/22 09:25:45;;;;;;;;;;;;;;;;;;5073189;28;19916;-63
2022/09/22 09:28:12;;;;;;;;;;;;;;;;;;5070933;28;20563;-63
2022/09/22 09:30:37;;;;;;;;;;;;;;;;;;5072142;28;19923;-63
2022/09/22 09:33:03;;;;;;;;;;;;;;;;;;5072977;28;19916;-62
2022/09/22 09:35:28;;;;;;;;;;;;;;;;;;5071974;28;19944;-62
2022/09/22 09:37:54;;;;;;;;;;;;;;;;;;5073698;28;20039;-61
2022/09/22 09:40:19;;;;;;;;;;;;;;;;;;5073540;28;19916;-62
2022/09/22 09:42:44;;;;;;;;;;;;;;;;;;5073365;28;19922;-62
2022/09/22 09:45:09;;;;;;;;;;;;;;;;;;5075450;28;20378;-63
2022/09/22 09:47:35;;;;;;;;;;;;;;;;;;5071672;28;19935;-62
2022/09/22 09:50:02;;;;;;;;;;;;;;;;;;5072551;28;19924;-63
2022/09/22 09:52:27;;;;;;;;;;;;;;;;;;5072967;28;19995;-64
2022/09/22 09:54:52;;;;;;;;;;;;;;;;;;5074056;28;20453;-63
2022/09/22 09:57:17;;;;;;;;;;;;;;;;;;5075050;28;19927;-62
2022/09/22 10:02:37;;;;;;;;;;;;;;;;;;5069151;28;19916;-62
2022/09/22 10:05:02;;;;;;;;;;;;;;;;;;5069352;28;19916;-62
2022/09/22 10:07:27;;;;;;;;;;;;;;;;;;5071088;28;20431;-63
2022/09/22 10:09:52;;;;;;;;;;;;;;;;;;5056476;28;19954;-63
2022/09/22 10:12:18;;;;;;;;;;;;;;;;;;5063047;28;19932;-62
2022/09/22 10:14:43;;;;;;;;;;;;;;;;;;5059892;28;19928;-62
2022/09/22 10:17:08;;;;;;;;;;;;;;;;;;5055929;28;19931;-62
2022/09/22 10:19:33;;;;;;;;;;;;;;;;;;5071370;28;20266;-62
2022/09/22 10:21:59;;;;;;;;;;;;;;;;;;5056476;28;19924;-62
2022/09/22 10:24:24;;;;;;;;;;;;;;;;;;5071699;28;19928;-62
2022/09/22 10:26:50;;;;;;;;;;;;;;;;;;5073213;28;19916;-62
2022/09/22 10:29:17;;;;;;;;;;;;;;;;;;5062472;28;19924;-63
2022/09/22 10:31:42;;;;;;;;;;;;;;;;;;5074775;28;19916;-62
2022/09/22 10:34:07;;;;;;;;;;;;;;;;;;5073524;28;19916;-63
2022/09/22 10:36:32;;;;;;;;;;;;;;;;;;5073383;28;19917;-62
2022/09/22 10:38:58;;;;;;;;;;;;;;;;;;5073397;28;19916;-63
2022/09/22 10:41:26;;;;;;;;;;;;;;;;;;5069925;28;19973;-62
2022/09/22 10:43:51;;;;;;;;;;;;;;;;;;5072759;28;19998;-63
2022/09/22 10:46:17;;;;;;;;;;;;;;;;;;5071650;28;19927;-63
2022/09/22 10:48:42;;;;;;;;;;;;;;;;;;5068899;28;19969;-62
2022/09/22 10:51:07;;;;;;;;;;;;;;;;;;5074140;28;19958;-64
2022/09/22 10:53:33;;;;;;;;;;;;;;;;;;5073570;28;19916;-62
2022/09/22 10:55:58;;;;;;;;;;;;;;;;;;5068066;28;19916;-62
2022/09/22 10:58:23;;;;;;;;;;;;;;;;;;5072170;28;19943;-63
2022/09/22 11:00:49;;;;;;;;;;;;;;;;;;5071823;28;19916;-63
2022/09/22 11:03:14;;;;;;;;;;;;;;;;;;5070037;28;20005;-63
2022/09/22 11:13:51;;;;;;;;;;;;;;;;;;5071939;28;19955;-62
2022/09/22 11:16:16;;;;;;;;;;;;;;;;;;5069396;28;20032;-63
2022/09/22 11:18:41;;;;;;;;;;;;;;;;;;5069675;28;20281;-63
2022/09/22 11:21:06;;;;;;;;;;;;;;;;;;5069239;28;19920;-63
2022/09/22 11:23:32;;;;;;;;;;;;;;;;;;5071425;28;19916;-64
2022/09/22 11:25:57;;;;;;;;;;;;;;;;;;5067815;28;19964;-64
2022/09/22 11:28:22;;;;;;;;;;;;;;;;;;5071378;28;19916;-64
2022/09/22 11:30:48;;;;;;;;;;;;;;;;;;5070924;28;20487;-64
2022/09/22 11:33:13;;;;;;;;;;;;;;;;;;5069119;28;20007;-63
2022/09/22 11:35:38;;;;;;;;;;;;;;;;;;5069319;28;19931;-64
2022/09/22 11:38:03;;;;;;;;;;;;;;;;;;5071552;28;19916;-65
2022/09/22 11:40:28;;;;;;;;;;;;;;;;;;5071501;28;20534;-63
2022/09/22 11:42:54;;;;;;;;;;;;;;;;;;5069624;28;19928;-64
2022/09/22 11:45:19;;;;;;;;;;;;;;;;;;5070637;28;19923;-64
2022/09/22 11:47:44;;;;;;;;;;;;;;;;;;5067958;28;19912;-64
2022/09/22 11:50:09;;;;;;;;;;;;;;;;;;5069350;28;19959;-64
2022/09/22 11:52:41;;;;;;;;;;;;;;;;;;5068637;28;20365;-64
2022/09/22 11:55:07;;;;;;;;;;;;;;;;;;5068290;28;19924;-63
2022/09/22 11:57:32;;;;;;;;;;;;;;;;;;5050798;28;19993;-62
2022/09/22 11:59:58;;;;;;;;;;;;;;;;;;5057162;28;19924;-62
2022/09/22 12:02:26;;;;;;;;;;;;;;;;;;5047834;28;19947;-63
2022/09/22 12:04:52;;;;;;;;;;;;;;;;;;5062920;28;19951;-62
2022/09/22 12:07:17;;;;;;;;;;;;;;;;;;5071304;28;20038;-62
2022/09/22 12:09:42;;;;;;;;;;;;;;;;;;5071698;28;19970;-61
2022/09/22 12:12:08;;;;;;;;;;;;;;;;;;5078214;28;19916;-63
2022/09/22 12:14:34;;;;;;;;;;;;;;;;;;5068895;28;19916;-62
2022/09/22 12:16:59;;;;;;;;;;;;;;;;;;5063015;28;19981;-63
2022/09/22 12:19:24;;;;;;;;;;;;;;;;;;5072565;28;20335;-63
2022/09/22 12:21:49;;;;;;;;;;;;;;;;;;5071930;28;20395;-63
2022/09/22 12:24:14;;;;;;;;;;;;;;;;;;5071806;28;19995;-63
2022/09/22 12:26:40;;;;;;;;;;;;;;;;;;5070303;28;19916;-63
2022/09/22 12:29:05;;;;;;;;;;;;;;;;;;5072214;28;20308;-63
2022/09/22 12:31:30;;;;;;;;;;;;;;;;;;5070519;28;19920;-63
2022/09/22 12:33:55;;;;;;;;;;;;;;;;;;5071667;28;19923;-63
2022/09/22 12:36:21;;;;;;;;;;;;;;;;;;5069457;28;19961;-63
2022/09/22 12:38:46;;;;;;;;;;;;;;;;;;5072045;28;19942;-63
2022/09/22 12:41:11;;;;;;;;;;;;;;;;;;5072953;28;19916;-63
2022/09/22 12:43:36;;;;;;;;;;;;;;;;;;5071140;28;20387;-63
2022/09/22 12:46:02;;;;;;;;;;;;;;;;;;5071638;28;19959;-63
2022/09/22 12:48:27;;;;;;;;;;;;;;;;;;5070651;28;20038;-64
2022/09/22 12:50:59;;;;;;;;;;;;;;;;;;5072064;28;19928;-63
2022/09/22 12:53:24;;;;;;;;;;;;;;;;;;5072609;28;19921;-63
2022/09/22 12:55:49;;;;;;;;;;;;;;;;;;5071279;28;19923;-64
2022/09/22 12:58:15;;;;;;;;;;;;;;;;;;5072186;28;19917;-63
2022/09/22 13:00:42;;;;;;;;;;;;;;;;;;5070619;28;19916;-63
2022/09/22 13:03:08;;;;;;;;;;;;;;;;;;5074428;28;19916;-63
2022/09/22 13:05:33;;;;;;;;;;;;;;;;;;5068941;28;20257;-63
2022/09/22 13:07:58;;;;;;;;;;;;;;;;;;5073274;28;20416;-63
2022/09/22 13:10:23;;;;;;;;;;;;;;;;;;5075484;28;19958;-64
2022/09/22 13:12:49;;;;;;;;;;;;;;;;;;5072671;28;19916;-64
2022/09/22 13:15:14;;;;;;;;;;;;;;;;;;5071052;28;20003;-63
2022/09/22 13:17:42;;;;;;;;;;;;;;;;;;5070403;28;19939;-64
2022/09/22 13:20:07;;;;;;;;;;;;;;;;;;5071607;28;19917;-63
2022/09/22 13:22:32;;;;;;;;;;;;;;;;;;5072900;28;19923;-63
2022/09/22 13:24:57;;;;;;;;;;;;;;;;;;5069793;28;19962;-63
2022/09/22 13:27:23;;;;;;;;;;;;;;;;;;5070334;28;19923;-63
2022/09/22 13:29:48;;;;;;;;;;;;;;;;;;5068283;28;20841;-62
2022/09/22 13:32:13;;;;;;;;;;;;;;;;;;5073236;28;19927;-63
2022/09/22 13:34:39;;;;;;;;;;;;;;;;;;5070124;28;19923;-63
2022/09/22 13:37:04;;;;;;;;;;;;;;;;;;5072478;28;19942;-63
2022/09/22 13:39:29;;;;;;;;;;;;;;;;;;5074947;28;19923;-62
2022/09/22 13:41:57;;;;;;;;;;;;;;;;;;5075243;28;19986;-63
2022/09/22 13:44:22;;;;;;;;;;;;;;;;;;5074333;28;19923;-63
2022/09/22 13:46:48;;;;;;;;;;;;;;;;;;5075700;28;19916;-62
2022/09/22 13:49:13;;;;;;;;;;;;;;;;;;5075111;28;20506;-63
2022/09/22 13:51:38;;;;;;;;;;;;;;;;;;5075175;28;19942;-63
2022/09/22 13:54:03;;;;;;;;;;;;;;;;;;5075784;28;19974;-63
2022/09/22 13:56:28;;;;;;;;;;;;;;;;;;5058290;28;20779;-63
2022/09/22 13:58:54;;;;;;;;;;;;;;;;;;5094686;28;20002;-63
2022/09/22 14:01:19;;;;;;;;;;;;;;;;;;5094465;28;19916;-63
2022/09/22 14:03:44;;;;;;;;;;;;;;;;;;5094155;28;19920;-63
2022/09/22 14:06:09;;;;;;;;;;;;;;;;;;5092827;28;19920;-63
2022/09/22 14:08:35;;;;;;;;;;;;;;;;;;5093045;28;19916;-66
2022/09/22 14:11:00;;;;;;;;;;;;;;;;;;5093976;28;20471;-62
2022/09/22 14:13:26;;;;;;;;;;;;;;;;;;5095701;28;19923;-63
2022/09/22 14:15:51;;;;;;;;;;;;;;;;;;5094227;28;19986;-63
2022/09/22 14:18:16;;;;;;;;;;;;;;;;;;5093247;28;19949;-63
2022/09/22 14:20:42;;;;;;;;;;;;;;;;;;5093977;28;20274;-62
2022/09/22 14:23:07;;;;;;;;;;;;;;;;;;5095855;28;20371;-63
2022/09/22 14:25:32;;;;;;;;;;;;;;;;;;5093807;28;19915;-63
2022/09/22 14:27:58;;;;;;;;;;;;;;;;;;5095576;28;20308;-63
2022/09/22 14:30:30;;;;;;;;;;;;;;;;;;5093447;28;20019;-63
2022/09/22 14:32:55;;;;;;;;;;;;;;;;;;5091613;28;19979;-63
2022/09/22 14:35:20;;;;;;;;;;;;;;;;;;5091711;28;19955;-63
2022/09/22 14:37:45;;;;;;;;;;;;;;;;;;5092977;28;20003;-63
2022/09/22 14:40:11;;;;;;;;;;;;;;;;;;5094907;28;20315;-63
2022/09/22 14:42:36;;;;;;;;;;;;;;;;;;5093464;28;19916;-63
2022/09/22 14:45:02;;;;;;;;;;;;;;;;;;5094509;28;19919;-63
2022/09/22 14:47:27;;;;;;;;;;;;;;;;;;5091607;28;19916;-63
2022/09/22 14:49:54;;;;;;;;;;;;;;;;;;5091276;28;19931;-63
2022/09/22 14:52:22;;;;;;;;;;;;;;;;;;5093225;28;19916;-63
2022/09/22 14:54:47;;;;;;;;;;;;;;;;;;5095076;28;19965;-63
2022/09/22 14:57:12;;;;;;;;;;;;;;;;;;5091728;28;19919;-63
2022/09/22 15:02:30;;;;;;;;;;;;;;;;;;5076952;28;19935;-63
2022/09/22 15:04:56;;;;;;;;;;;;;;;;;;5094260;28;19923;-63
2022/09/22 15:07:21;;;;;;;;;;;;;;;;;;5095637;28;20395;-64
2022/09/22 15:09:46;;;;;;;;;;;;;;;;;;5093223;28;20372;-64
2022/09/22 15:12:11;;;;;;;;;;;;;;;;;;5092877;28;20022;-64
2022/09/22 15:14:40;;;;;;;;;;;;;;;;;;5094686;28;19954;-65
2022/09/22 15:19:49;;;;;;;;;;;;;;;;;;5094074;28;19942;-64
2022/09/22 15:22:14;;;;;;;;;;;;;;;;;;5091927;27;19919;-64
2022/09/22 15:24:39;;;;;;;;;;;;;;;;;;5093275;28;19951;-65
2022/09/22 15:27:05;;;;;;;;;;;;;;;;;;5091727;28;19920;-64
2022/09/22 15:29:31;;;;;;;;;;;;;;;;;;5092215;28;19967;-64
2022/09/22 15:31:56;;;;;;;;;;;;;;;;;;5091805;28;19916;-64
2022/09/22 15:34:21;;;;;;;;;;;;;;;;;;5094144;28;19916;-64
2022/09/22 15:36:49;;;;;;;;;;;;;;;;;;5092889;28;19920;-65
2022/09/22 15:39:14;;;;;;;;;;;;;;;;;;5091975;27;19920;-64
2022/09/22 15:41:40;;;;;;;;;;;;;;;;;;5093635;28;19916;-64
2022/09/22 15:44:06;;;;;;;;;;;;;;;;;;5091262;28;19912;-64
2022/09/22 15:46:32;;;;;;;;;;;;;;;;;;5091773;28;19927;-65
2022/09/22 15:48:57;;;;;;;;;;;;;;;;;;5093850;28;19919;-64
2022/09/22 15:51:22;;;;;;;;;;;;;;;;;;5092737;28;20383;-64
2022/09/22 15:53:48;;;;;;;;;;;;;;;;;;5095594;28;19916;-64
2022/09/22 15:56:13;;;;;;;;;;;;;;;;;;5094753;28;19916;-64
2022/09/22 15:58:38;;;;;;;;;;;;;;;;;;5092651;28;19916;-64
2022/09/22 16:01:04;;;;;;;;;;;;;;;;;;5091174;28;19916;-64
2022/09/22 16:03:30;;;;;;;;;;;;;;;;;;5092925;28;19915;-64
2022/09/22 16:05:55;;;;;;;;;;;;;;;;;;5096449;28;19920;-64
2022/09/22 16:08:21;;;;;;;;;;;;;;;;;;5090119;28;19920;-64
2022/09/22 16:10:46;;;;;;;;;;;;;;;;;;5091034;28;19924;-64
2022/09/22 16:13:11;;;;;;;;;;;;;;;;;;5092407;28;19916;-64
2022/09/22 16:15:37;;;;;;;;;;;;;;;;;;5090313;28;19922;-64
2022/09/22 16:18:03;;;;;;;;;;;;;;;;;;5092688;28;20696;-64
2022/09/22 16:20:28;;;;;;;;;;;;;;;;;;5091295;28;19916;-64
2022/09/22 16:22:53;;;;;;;;;;;;;;;;;;5092642;28;19916;-64
2022/09/22 16:25:19;;;;;;;;;;;;;;;;;;5090381;28;19916;-64
2022/09/22 16:27:44;;;;;;;;;;;;;;;;;;5089013;28;19930;-63
2022/09/22 16:30:09;;;;;;;;;;;;;;;;;;5092368;28;19923;-64
2022/09/22 16:32:35;;;;;;;;;;;;;;;;;;5091603;28;20325;-63
2022/09/22 16:35:00;;;;;;;;;;;;;;;;;;5073281;28;19923;-63
2022/09/22 16:37:25;;;;;;;;;;;;;;;;;;5091488;28;19920;-63
2022/09/22 16:39:50;;;;;;;;;;;;;;;;;;5096611;28;20002;-63
2022/09/22 16:42:16;;;;;;;;;;;;;;;;;;5075084;28;19912;-63
2022/09/22 16:44:41;;;;;;;;;;;;;;;;;;5093220;28;20011;-63
2022/09/22 16:47:07;;;;;;;;;;;;;;;;;;5092543;28;20328;-63
2022/09/22 16:49:32;;;;;;;;;;;;;;;;;;5090561;28;19931;-64
2022/09/22 16:51:58;;;;;;;;;;;;;;;;;;5088767;28;19923;-64
2022/09/22 16:54:23;;;;;;;;;;;;;;;;;;5090138;28;19922;-63
2022/09/22 16:56:49;;;;;;;;;;;;;;;;;;5094581;28;19949;-63
2022/09/22 16:59:14;;;;;;;;;;;;;;;;;;5091589;28;19923;-63